sensor_id;sensor_type;location;lat;lon;timestamp;temperature;humidity
27823;DHT22;29019;47.630;8.262;2022-07-23T00:01:22;29.30;38.60
27823;DHT22;29019;47.630;8.262;2022-07-23T00:05:22;29.30;38.70
27823;DHT22;29019;47.630;8.262;2022-07-23T00:09:23;29.30;38.70
27823;DHT22;29019;47.630;8.262;2022-07-23T00:13:23;29.20;38.60
27823;DHT22;29019;47.630;8.262;2022-07-23T00:17:24;29.20;38.70
27823;DHT22;29019;47.630;8.262;2022-07-23T00:21:24;29.20;38.70
27823;DHT22;29019;47.630;8.262;2022-07-23T00:25:26;29.20;38.70
27823;DHT22;29019;47.630;8.262;2022-07-23T00:29:26;29.20;38.80
27823;DHT22;29019;47.630;8.262;2022-07-23T00:33:27;29.20;38.80
27823;DHT22;29019;47.630;8.262;2022-07-23T00:37:27;29.20;38.80
27823;DHT22;29019;47.630;8.262;2022-07-23T00:41:28;29.20;38.90
27823;DHT22;29019;47.630;8.262;2022-07-23T00:45:28;29.20;38.90
27823;DHT22;29019;47.630;8.262;2022-07-23T00:49:29;29.20;38.90
27823;DHT22;29019;47.630;8.262;2022-07-23T00:53:30;29.20;38.90
27823;DHT22;29019;47.630;8.262;2022-07-23T00:57:31;29.10;38.90
27823;DHT22;29019;47.630;8.262;2022-07-23T01:01:32;29.10;38.90
27823;DHT22;29019;47.630;8.262;2022-07-23T01:05:33;29.10;38.90
27823;DHT22;29019;47.630;8.262;2022-07-23T01:09:33;29.10;38.90
27823;DHT22;29019;47.630;8.262;2022-07-23T01:13:34;29.00;38.90
27823;DHT22;29019;47.630;8.262;2022-07-23T01:17:34;29.10;39.00
27823;DHT22;29019;47.630;8.262;2022-07-23T01:21:35;29.00;39.00
27823;DHT22;29019;47.630;8.262;2022-07-23T01:25:36;29.00;39.00
27823;DHT22;29019;47.630;8.262;2022-07-23T01:29:36;29.00;39.00
27823;DHT22;29019;47.630;8.262;2022-07-23T01:33:37;29.00;39.00
27823;DHT22;29019;47.630;8.262;2022-07-23T01:37:37;29.00;39.00
27823;DHT22;29019;47.630;8.262;2022-07-23T01:41:38;29.00;39.00
27823;DHT22;29019;47.630;8.262;2022-07-23T01:45:38;29.00;39.00
27823;DHT22;29019;47.630;8.262;2022-07-23T01:49:39;29.00;39.00
27823;DHT22;29019;47.630;8.262;2022-07-23T01:53:39;29.00;39.00
27823;DHT22;29019;47.630;8.262;2022-07-23T01:57:40;28.90;39.00
27823;DHT22;29019;47.630;8.262;2022-07-23T02:01:40;29.00;39.00
27823;DHT22;29019;47.630;8.262;2022-07-23T02:05:41;28.90;39.00
27823;DHT22;29019;47.630;8.262;2022-07-23T02:09:41;28.90;39.00
27823;DHT22;29019;47.630;8.262;2022-07-23T02:13:42;28.90;39.00
27823;DHT22;29019;47.630;8.262;2022-07-23T02:17:42;28.90;39.00
27823;DHT22;29019;47.630;8.262;2022-07-23T02:21:43;28.90;39.00
27823;DHT22;29019;47.630;8.262;2022-07-23T02:25:43;28.90;39.10
27823;DHT22;29019;47.630;8.262;2022-07-23T02:29:44;28.90;39.00
27823;DHT22;29019;47.630;8.262;2022-07-23T02:33:44;28.90;39.00
27823;DHT22;29019;47.630;8.262;2022-07-23T02:37:45;28.90;39.00
27823;DHT22;29019;47.630;8.262;2022-07-23T02:41:45;28.90;39.10
27823;DHT22;29019;47.630;8.262;2022-07-23T02:45:45;28.90;39.10
27823;DHT22;29019;47.630;8.262;2022-07-23T02:49:46;28.90;39.10
27823;DHT22;29019;47.630;8.262;2022-07-23T02:53:46;28.80;39.00
27823;DHT22;29019;47.630;8.262;2022-07-23T02:57:47;28.80;39.10
27823;DHT22;29019;47.630;8.262;2022-07-23T03:01:47;28.80;39.10
27823;DHT22;29019;47.630;8.262;2022-07-23T03:05:48;28.80;39.10
27823;DHT22;29019;47.630;8.262;2022-07-23T03:09:48;28.80;39.10
27823;DHT22;29019;47.630;8.262;2022-07-23T03:13:49;28.80;39.10
27823;DHT22;29019;47.630;8.262;2022-07-23T03:17:49;28.80;39.10
27823;DHT22;29019;47.630;8.262;2022-07-23T03:21:49;28.80;39.20
27823;DHT22;29019;47.630;8.262;2022-07-23T03:25:50;28.80;39.10
27823;DHT22;29019;47.630;8.262;2022-07-23T03:29:51;28.80;39.20
27823;DHT22;29019;47.630;8.262;2022-07-23T03:33:51;28.80;39.20
27823;DHT22;29019;47.630;8.262;2022-07-23T03:37:52;28.80;39.20
27823;DHT22;29019;47.630;8.262;2022-07-23T03:41:52;28.80;39.30
27823;DHT22;29019;47.630;8.262;2022-07-23T03:45:53;28.80;39.30
27823;DHT22;29019;47.630;8.262;2022-07-23T03:49:54;28.70;39.20
27823;DHT22;29019;47.630;8.262;2022-07-23T03:53:54;28.70;39.30
27823;DHT22;29019;47.630;8.262;2022-07-23T03:57:55;28.70;39.30
27823;DHT22;29019;47.630;8.262;2022-07-23T04:01:56;28.70;39.30
27823;DHT22;29019;47.630;8.262;2022-07-23T04:05:56;28.70;39.40
27823;DHT22;29019;47.630;8.262;2022-07-23T04:09:57;28.70;39.40
27823;DHT22;29019;47.630;8.262;2022-07-23T04:13:57;28.70;39.40
27823;DHT22;29019;47.630;8.262;2022-07-23T04:17:58;28.70;39.40
27823;DHT22;29019;47.630;8.262;2022-07-23T04:21:58;28.70;39.40
27823;DHT22;29019;47.630;8.262;2022-07-23T04:25:58;28.70;39.40
27823;DHT22;29019;47.630;8.262;2022-07-23T04:29:59;28.70;39.40
27823;DHT22;29019;47.630;8.262;2022-07-23T04:33:59;28.60;39.40
27823;DHT22;29019;47.630;8.262;2022-07-23T04:38:00;28.60;39.40
27823;DHT22;29019;47.630;8.262;2022-07-23T04:42:01;28.60;39.50
27823;DHT22;29019;47.630;8.262;2022-07-23T04:46:01;28.60;39.50
27823;DHT22;29019;47.630;8.262;2022-07-23T04:50:01;28.60;39.50
27823;DHT22;29019;47.630;8.262;2022-07-23T04:54:02;28.60;39.50
27823;DHT22;29019;47.630;8.262;2022-07-23T04:58:02;28.60;39.50
27823;DHT22;29019;47.630;8.262;2022-07-23T05:02:03;28.60;39.60
27823;DHT22;29019;47.630;8.262;2022-07-23T05:06:03;28.60;39.60
27823;DHT22;29019;47.630;8.262;2022-07-23T05:10:04;28.60;39.60
27823;DHT22;29019;47.630;8.262;2022-07-23T05:14:04;28.60;39.70
27823;DHT22;29019;47.630;8.262;2022-07-23T05:18:05;28.60;39.70
27823;DHT22;29019;47.630;8.262;2022-07-23T05:22:05;28.50;39.80
27823;DHT22;29019;47.630;8.262;2022-07-23T05:26:06;28.50;39.90
27823;DHT22;29019;47.630;8.262;2022-07-23T05:30:07;28.50;39.90
27823;DHT22;29019;47.630;8.262;2022-07-23T05:34:07;28.50;39.90
27823;DHT22;29019;47.630;8.262;2022-07-23T05:38:08;28.50;39.90
27823;DHT22;29019;47.630;8.262;2022-07-23T05:42:08;28.60;40.00
27823;DHT22;29019;47.630;8.262;2022-07-23T05:46:08;28.50;39.90
27823;DHT22;29019;47.630;8.262;2022-07-23T05:50:09;28.50;39.90
27823;DHT22;29019;47.630;8.262;2022-07-23T05:54:10;28.50;39.90
27823;DHT22;29019;47.630;8.262;2022-07-23T05:58:10;28.50;39.90
27823;DHT22;29019;47.630;8.262;2022-07-23T06:02:11;28.50;39.90
27823;DHT22;29019;47.630;8.262;2022-07-23T06:06:11;28.50;40.00
27823;DHT22;29019;47.630;8.262;2022-07-23T06:10:11;28.50;39.90
27823;DHT22;29019;47.630;8.262;2022-07-23T06:14:12;28.50;40.00
27823;DHT22;29019;47.630;8.262;2022-07-23T06:18:12;28.60;40.00
27823;DHT22;29019;47.630;8.262;2022-07-23T06:22:13;28.50;40.00
27823;DHT22;29019;47.630;8.262;2022-07-23T06:26:13;28.60;40.10
27823;DHT22;29019;47.630;8.262;2022-07-23T06:30:14;28.50;40.00
27823;DHT22;29019;47.630;8.262;2022-07-23T06:34:16;28.50;40.00
27823;DHT22;29019;47.630;8.262;2022-07-23T06:38:16;28.50;40.00
27823;DHT22;29019;47.630;8.262;2022-07-23T06:42:17;28.50;40.20
27823;DHT22;29019;47.630;8.262;2022-07-23T06:46:17;28.50;40.10
27823;DHT22;29019;47.630;8.262;2022-07-23T06:50:18;28.50;40.00
27823;DHT22;29019;47.630;8.262;2022-07-23T06:54:18;28.50;40.10
27823;DHT22;29019;47.630;8.262;2022-07-23T06:58:19;28.50;40.70
27823;DHT22;29019;47.630;8.262;2022-07-23T07:02:20;28.50;40.20
27823;DHT22;29019;47.630;8.262;2022-07-23T07:06:20;28.40;40.10
27823;DHT22;29019;47.630;8.262;2022-07-23T07:10:21;28.50;40.10
27823;DHT22;29019;47.630;8.262;2022-07-23T07:14:21;28.50;40.10
27823;DHT22;29019;47.630;8.262;2022-07-23T07:18:22;28.50;40.10
27823;DHT22;29019;47.630;8.262;2022-07-23T07:22:22;28.50;40.10
27823;DHT22;29019;47.630;8.262;2022-07-23T07:26:23;28.50;40.20
27823;DHT22;29019;47.630;8.262;2022-07-23T07:30:23;28.50;40.20
27823;DHT22;29019;47.630;8.262;2022-07-23T07:34:24;28.50;40.20
27823;DHT22;29019;47.630;8.262;2022-07-23T07:38:24;28.50;40.10
27823;DHT22;29019;47.630;8.262;2022-07-23T07:42:25;28.50;40.20
27823;DHT22;29019;47.630;8.262;2022-07-23T07:46:26;28.50;40.20
27823;DHT22;29019;47.630;8.262;2022-07-23T07:50:27;28.40;40.20
27823;DHT22;29019;47.630;8.262;2022-07-23T07:54:28;28.50;40.30
27823;DHT22;29019;47.630;8.262;2022-07-23T07:58:28;28.40;40.20
27823;DHT22;29019;47.630;8.262;2022-07-23T08:02:29;28.40;40.20
27823;DHT22;29019;47.630;8.262;2022-07-23T08:06:29;28.40;40.30
27823;DHT22;29019;47.630;8.262;2022-07-23T08:10:29;28.40;40.30
27823;DHT22;29019;47.630;8.262;2022-07-23T08:14:31;28.50;40.40
27823;DHT22;29019;47.630;8.262;2022-07-23T08:18:31;28.40;40.40
27823;DHT22;29019;47.630;8.262;2022-07-23T08:22:45;28.50;40.30
27823;DHT22;29019;47.630;8.262;2022-07-23T08:26:46;28.40;40.40
27823;DHT22;29019;47.630;8.262;2022-07-23T08:30:46;28.50;40.90
27823;DHT22;29019;47.630;8.262;2022-07-23T08:34:46;28.50;40.40
27823;DHT22;29019;47.630;8.262;2022-07-23T08:38:47;28.50;40.40
27823;DHT22;29019;47.630;8.262;2022-07-23T08:42:48;28.50;40.40
27823;DHT22;29019;47.630;8.262;2022-07-23T08:46:49;28.40;40.40
27823;DHT22;29019;47.630;8.262;2022-07-23T08:50:50;28.40;40.40
27823;DHT22;29019;47.630;8.262;2022-07-23T08:54:51;28.50;40.40
27823;DHT22;29019;47.630;8.262;2022-07-23T08:58:53;28.40;40.40
27823;DHT22;29019;47.630;8.262;2022-07-23T09:02:53;28.40;40.40
27823;DHT22;29019;47.630;8.262;2022-07-23T09:06:54;28.40;40.40
27823;DHT22;29019;47.630;8.262;2022-07-23T09:10:56;28.50;40.50
27823;DHT22;29019;47.630;8.262;2022-07-23T09:14:57;28.50;40.50
27823;DHT22;29019;47.630;8.262;2022-07-23T09:19:04;28.40;40.50
27823;DHT22;29019;47.630;8.262;2022-07-23T09:23:04;28.40;40.40
27823;DHT22;29019;47.630;8.262;2022-07-23T09:27:05;28.40;40.40
27823;DHT22;29019;47.630;8.262;2022-07-23T09:31:05;28.50;40.40
27823;DHT22;29019;47.630;8.262;2022-07-23T09:35:06;28.50;40.40
27823;DHT22;29019;47.630;8.262;2022-07-23T09:39:07;28.50;40.40
27823;DHT22;29019;47.630;8.262;2022-07-23T09:43:07;28.50;40.40
27823;DHT22;29019;47.630;8.262;2022-07-23T09:47:08;28.50;40.40
27823;DHT22;29019;47.630;8.262;2022-07-23T09:51:08;28.50;40.40
27823;DHT22;29019;47.630;8.262;2022-07-23T09:55:09;28.50;40.50
27823;DHT22;29019;47.630;8.262;2022-07-23T09:59:09;28.50;40.40
27823;DHT22;29019;47.630;8.262;2022-07-23T10:03:12;28.50;40.40
27823;DHT22;29019;47.630;8.262;2022-07-23T10:07:13;28.50;40.40
27823;DHT22;29019;47.630;8.262;2022-07-23T10:11:17;28.50;40.40
27823;DHT22;29019;47.630;8.262;2022-07-23T10:15:17;28.60;40.40
27823;DHT22;29019;47.630;8.262;2022-07-23T10:19:18;28.60;40.40
27823;DHT22;29019;47.630;8.262;2022-07-23T10:23:28;28.60;40.40
27823;DHT22;29019;47.630;8.262;2022-07-23T10:27:47;28.60;40.30
27823;DHT22;29019;47.630;8.262;2022-07-23T10:31:52;28.60;40.30
27823;DHT22;29019;47.630;8.262;2022-07-23T10:36:18;28.60;40.30
27823;DHT22;29019;47.630;8.262;2022-07-23T10:40:19;28.60;40.30
27823;DHT22;29019;47.630;8.262;2022-07-23T10:44:20;28.60;40.40
27823;DHT22;29019;47.630;8.262;2022-07-23T10:48:24;28.70;40.40
27823;DHT22;29019;47.630;8.262;2022-07-23T10:52:28;28.70;40.30
27823;DHT22;29019;47.630;8.262;2022-07-23T11:00:48;28.70;40.40
27823;DHT22;29019;47.630;8.262;2022-07-23T11:04:49;28.70;40.30
27823;DHT22;29019;47.630;8.262;2022-07-23T11:09:22;28.70;40.30
27823;DHT22;29019;47.630;8.262;2022-07-23T11:17:30;28.70;40.30
27823;DHT22;29019;47.630;8.262;2022-07-23T11:25:37;28.70;40.30
27823;DHT22;29019;47.630;8.262;2022-07-23T11:29:38;28.80;40.30
27823;DHT22;29019;47.630;8.262;2022-07-23T11:33:38;28.80;40.40
27823;DHT22;29019;47.630;8.262;2022-07-23T11:37:39;28.80;40.40
27823;DHT22;29019;47.630;8.262;2022-07-23T11:41:43;28.80;40.30
27823;DHT22;29019;47.630;8.262;2022-07-23T11:45:48;28.80;40.30
27823;DHT22;29019;47.630;8.262;2022-07-23T11:49:55;28.90;40.40
27823;DHT22;29019;47.630;8.262;2022-07-23T11:54:04;28.80;40.30
27823;DHT22;29019;47.630;8.262;2022-07-23T11:58:05;28.90;40.40
27823;DHT22;29019;47.630;8.262;2022-07-23T12:02:06;28.90;40.30
27823;DHT22;29019;47.630;8.262;2022-07-23T12:06:06;28.90;40.20
27823;DHT22;29019;47.630;8.262;2022-07-23T12:10:11;28.90;40.20
27823;DHT22;29019;47.630;8.262;2022-07-23T12:14:11;29.00;40.20
27823;DHT22;29019;47.630;8.262;2022-07-23T12:18:13;29.00;40.20
27823;DHT22;29019;47.630;8.262;2022-07-23T12:22:14;29.00;40.10
27823;DHT22;29019;47.630;8.262;2022-07-23T12:26:15;29.00;40.10
27823;DHT22;29019;47.630;8.262;2022-07-23T12:30:19;29.10;40.10
27823;DHT22;29019;47.630;8.262;2022-07-23T12:34:20;29.10;40.10
27823;DHT22;29019;47.630;8.262;2022-07-23T12:38:21;29.10;40.10
27823;DHT22;29019;47.630;8.262;2022-07-23T12:42:22;29.10;40.10
27823;DHT22;29019;47.630;8.262;2022-07-23T12:46:24;29.10;40.00
27823;DHT22;29019;47.630;8.262;2022-07-23T12:54:31;29.10;40.00
27823;DHT22;29019;47.630;8.262;2022-07-23T13:02:45;29.20;40.00
27823;DHT22;29019;47.630;8.262;2022-07-23T13:06:47;29.20;40.00
27823;DHT22;29019;47.630;8.262;2022-07-23T13:10:48;29.20;39.90
27823;DHT22;29019;47.630;8.262;2022-07-23T13:14:49;29.20;40.00
27823;DHT22;29019;47.630;8.262;2022-07-23T13:18:49;29.30;40.00
27823;DHT22;29019;47.630;8.262;2022-07-23T13:22:50;29.30;39.90
27823;DHT22;29019;47.630;8.262;2022-07-23T13:26:50;29.30;39.90
27823;DHT22;29019;47.630;8.262;2022-07-23T13:30:52;29.30;39.90
27823;DHT22;29019;47.630;8.262;2022-07-23T13:34:52;29.20;39.90
27823;DHT22;29019;47.630;8.262;2022-07-23T13:38:53;29.30;39.90
27823;DHT22;29019;47.630;8.262;2022-07-23T13:42:53;29.30;39.90
27823;DHT22;29019;47.630;8.262;2022-07-23T13:46:54;29.30;39.90
27823;DHT22;29019;47.630;8.262;2022-07-23T13:50:54;29.30;39.90
27823;DHT22;29019;47.630;8.262;2022-07-23T13:54:55;29.20;39.90
27823;DHT22;29019;47.630;8.262;2022-07-23T13:58:55;29.30;39.90
27823;DHT22;29019;47.630;8.262;2022-07-23T14:02:56;29.30;39.90
27823;DHT22;29019;47.630;8.262;2022-07-23T14:06:57;29.30;39.90
27823;DHT22;29019;47.630;8.262;2022-07-23T14:10:57;29.30;39.90
27823;DHT22;29019;47.630;8.262;2022-07-23T14:14:58;29.30;39.80
27823;DHT22;29019;47.630;8.262;2022-07-23T14:18:58;29.40;39.90
27823;DHT22;29019;47.630;8.262;2022-07-23T14:22:59;29.40;39.80
27823;DHT22;29019;47.630;8.262;2022-07-23T14:27:01;29.40;39.80
27823;DHT22;29019;47.630;8.262;2022-07-23T14:31:02;29.40;39.70
27823;DHT22;29019;47.630;8.262;2022-07-23T14:35:03;29.40;39.60
27823;DHT22;29019;47.630;8.262;2022-07-23T14:39:04;29.40;39.60
27823;DHT22;29019;47.630;8.262;2022-07-23T14:43:04;29.40;39.60
27823;DHT22;29019;47.630;8.262;2022-07-23T14:47:05;29.40;39.60
27823;DHT22;29019;47.630;8.262;2022-07-23T14:51:05;29.40;39.60
27823;DHT22;29019;47.630;8.262;2022-07-23T14:55:06;29.50;39.60
27823;DHT22;29019;47.630;8.262;2022-07-23T14:59:06;29.50;39.60
27823;DHT22;29019;47.630;8.262;2022-07-23T15:03:07;29.50;39.50
27823;DHT22;29019;47.630;8.262;2022-07-23T15:07:07;29.50;39.50
27823;DHT22;29019;47.630;8.262;2022-07-23T15:11:08;29.50;39.50
27823;DHT22;29019;47.630;8.262;2022-07-23T15:15:09;29.50;39.50
27823;DHT22;29019;47.630;8.262;2022-07-23T15:19:09;29.50;39.50
27823;DHT22;29019;47.630;8.262;2022-07-23T15:23:10;29.50;39.50
27823;DHT22;29019;47.630;8.262;2022-07-23T15:27:10;29.50;39.40
27823;DHT22;29019;47.630;8.262;2022-07-23T15:31:11;29.50;39.40
27823;DHT22;29019;47.630;8.262;2022-07-23T15:35:11;29.50;39.40
27823;DHT22;29019;47.630;8.262;2022-07-23T15:39:12;29.50;39.40
27823;DHT22;29019;47.630;8.262;2022-07-23T15:43:13;29.50;39.40
27823;DHT22;29019;47.630;8.262;2022-07-23T15:47:14;29.50;39.40
27823;DHT22;29019;47.630;8.262;2022-07-23T15:51:15;29.50;39.40
27823;DHT22;29019;47.630;8.262;2022-07-23T15:55:15;29.50;39.40
27823;DHT22;29019;47.630;8.262;2022-07-23T15:59:16;29.50;39.40
27823;DHT22;29019;47.630;8.262;2022-07-23T16:03:17;29.50;39.40
27823;DHT22;29019;47.630;8.262;2022-07-23T16:07:18;29.50;39.40
27823;DHT22;29019;47.630;8.262;2022-07-23T16:11:18;29.50;39.40
27823;DHT22;29019;47.630;8.262;2022-07-23T16:15:19;29.50;39.40
27823;DHT22;29019;47.630;8.262;2022-07-23T16:19:19;29.50;39.40
27823;DHT22;29019;47.630;8.262;2022-07-23T16:23:20;29.50;39.40
27823;DHT22;29019;47.630;8.262;2022-07-23T16:27:20;29.50;39.40
27823;DHT22;29019;47.630;8.262;2022-07-23T16:31:21;29.50;39.40
27823;DHT22;29019;47.630;8.262;2022-07-23T16:35:21;29.50;39.40
27823;DHT22;29019;47.630;8.262;2022-07-23T16:39:22;29.50;39.40
27823;DHT22;29019;47.630;8.262;2022-07-23T16:43:22;29.50;39.40
27823;DHT22;29019;47.630;8.262;2022-07-23T16:47:23;29.40;39.40
27823;DHT22;29019;47.630;8.262;2022-07-23T16:51:23;29.40;39.40
27823;DHT22;29019;47.630;8.262;2022-07-23T16:55:24;29.40;39.40
27823;DHT22;29019;47.630;8.262;2022-07-23T16:59:24;29.40;39.40
27823;DHT22;29019;47.630;8.262;2022-07-23T17:03:25;29.40;39.40
27823;DHT22;29019;47.630;8.262;2022-07-23T17:07:26;29.40;39.50
27823;DHT22;29019;47.630;8.262;2022-07-23T17:11:27;29.40;39.50
27823;DHT22;29019;47.630;8.262;2022-07-23T17:15:27;29.40;39.50
27823;DHT22;29019;47.630;8.262;2022-07-23T17:19:28;29.30;39.40
27823;DHT22;29019;47.630;8.262;2022-07-23T17:23:28;29.40;39.50
27823;DHT22;29019;47.630;8.262;2022-07-23T17:27:29;29.40;39.50
27823;DHT22;29019;47.630;8.262;2022-07-23T17:31:29;29.40;39.50
27823;DHT22;29019;47.630;8.262;2022-07-23T17:35:30;29.40;39.50
27823;DHT22;29019;47.630;8.262;2022-07-23T17:39:30;29.40;39.50
27823;DHT22;29019;47.630;8.262;2022-07-23T17:43:31;29.40;39.50
27823;DHT22;29019;47.630;8.262;2022-07-23T17:47:31;29.40;39.40
27823;DHT22;29019;47.630;8.262;2022-07-23T17:51:32;29.40;39.50
27823;DHT22;29019;47.630;8.262;2022-07-23T17:55:32;29.30;39.40
27823;DHT22;29019;47.630;8.262;2022-07-23T17:59:33;29.30;39.40
27823;DHT22;29019;47.630;8.262;2022-07-23T18:03:34;29.30;39.40
27823;DHT22;29019;47.630;8.262;2022-07-23T18:07:36;29.30;39.40
27823;DHT22;29019;47.630;8.262;2022-07-23T18:11:36;29.30;39.40
27823;DHT22;29019;47.630;8.262;2022-07-23T18:15:37;29.30;39.40
27823;DHT22;29019;47.630;8.262;2022-07-23T18:19:37;29.30;39.40
27823;DHT22;29019;47.630;8.262;2022-07-23T18:23:38;29.30;39.40
27823;DHT22;29019;47.630;8.262;2022-07-23T18:27:39;29.30;39.40
27823;DHT22;29019;47.630;8.262;2022-07-23T18:31:39;29.30;39.40
27823;DHT22;29019;47.630;8.262;2022-07-23T18:35:40;29.30;39.40
27823;DHT22;29019;47.630;8.262;2022-07-23T18:39:40;29.30;39.40
27823;DHT22;29019;47.630;8.262;2022-07-23T18:43:42;29.30;39.40
27823;DHT22;29019;47.630;8.262;2022-07-23T18:47:42;29.30;39.40
27823;DHT22;29019;47.630;8.262;2022-07-23T18:51:43;29.20;39.40
27823;DHT22;29019;47.630;8.262;2022-07-23T18:55:43;29.20;39.40
27823;DHT22;29019;47.630;8.262;2022-07-23T18:59:44;29.30;39.50
27823;DHT22;29019;47.630;8.262;2022-07-23T19:03:44;29.30;39.50
27823;DHT22;29019;47.630;8.262;2022-07-23T19:07:45;29.30;39.50
27823;DHT22;29019;47.630;8.262;2022-07-23T19:11:45;29.30;39.50
27823;DHT22;29019;47.630;8.262;2022-07-23T19:15:46;29.20;39.50
27823;DHT22;29019;47.630;8.262;2022-07-23T19:19:46;29.20;39.50
27823;DHT22;29019;47.630;8.262;2022-07-23T19:23:47;29.20;39.50
27823;DHT22;29019;47.630;8.262;2022-07-23T19:27:47;29.20;39.50
27823;DHT22;29019;47.630;8.262;2022-07-23T19:31:48;29.20;39.50
27823;DHT22;29019;47.630;8.262;2022-07-23T19:35:48;29.20;39.50
27823;DHT22;29019;47.630;8.262;2022-07-23T19:39:49;29.20;39.50
27823;DHT22;29019;47.630;8.262;2022-07-23T19:43:49;29.20;39.50
27823;DHT22;29019;47.630;8.262;2022-07-23T19:47:50;29.20;39.50
27823;DHT22;29019;47.630;8.262;2022-07-23T19:51:50;29.20;39.50
27823;DHT22;29019;47.630;8.262;2022-07-23T19:55:50;29.20;39.50
27823;DHT22;29019;47.630;8.262;2022-07-23T19:59:51;29.20;39.60
27823;DHT22;29019;47.630;8.262;2022-07-23T20:03:51;29.20;39.60
27823;DHT22;29019;47.630;8.262;2022-07-23T20:07:52;29.20;39.60
27823;DHT22;29019;47.630;8.262;2022-07-23T20:11:52;29.20;39.60
27823;DHT22;29019;47.630;8.262;2022-07-23T20:15:53;29.20;39.60
27823;DHT22;29019;47.630;8.262;2022-07-23T20:19:53;29.20;39.60
27823;DHT22;29019;47.630;8.262;2022-07-23T20:23:54;29.20;39.60
27823;DHT22;29019;47.630;8.262;2022-07-23T20:27:54;29.10;39.60
27823;DHT22;29019;47.630;8.262;2022-07-23T20:31:55;29.10;39.60
27823;DHT22;29019;47.630;8.262;2022-07-23T20:35:56;29.10;39.60
27823;DHT22;29019;47.630;8.262;2022-07-23T20:39:57;29.10;39.60
27823;DHT22;29019;47.630;8.262;2022-07-23T20:43:57;29.10;39.60
27823;DHT22;29019;47.630;8.262;2022-07-23T20:47:58;29.10;39.60
27823;DHT22;29019;47.630;8.262;2022-07-23T20:51:59;29.10;39.60
27823;DHT22;29019;47.630;8.262;2022-07-23T20:55:59;29.10;39.70
27823;DHT22;29019;47.630;8.262;2022-07-23T21:00:00;29.00;39.60
27823;DHT22;29019;47.630;8.262;2022-07-23T21:04:00;29.00;39.60
27823;DHT22;29019;47.630;8.262;2022-07-23T21:08:01;29.00;39.60
27823;DHT22;29019;47.630;8.262;2022-07-23T21:12:02;29.00;39.60
27823;DHT22;29019;47.630;8.262;2022-07-23T21:16:03;29.00;39.60
27823;DHT22;29019;47.630;8.262;2022-07-23T21:20:03;29.00;39.60
27823;DHT22;29019;47.630;8.262;2022-07-23T21:24:04;29.00;39.60
27823;DHT22;29019;47.630;8.262;2022-07-23T21:28:05;28.90;41.50
27823;DHT22;29019;47.630;8.262;2022-07-23T21:32:06;28.80;42.60
27823;DHT22;29019;47.630;8.262;2022-07-23T21:36:06;28.60;42.00
27823;DHT22;29019;47.630;8.262;2022-07-23T21:40:07;28.60;41.20
27823;DHT22;29019;47.630;8.262;2022-07-23T21:44:07;28.60;40.80
27823;DHT22;29019;47.630;8.262;2022-07-23T21:48:08;28.70;40.70
27823;DHT22;29019;47.630;8.262;2022-07-23T21:52:08;28.70;40.60
27823;DHT22;29019;47.630;8.262;2022-07-23T21:56:09;28.80;40.50
27823;DHT22;29019;47.630;8.262;2022-07-23T22:00:14;28.80;40.40
27823;DHT22;29019;47.630;8.262;2022-07-23T22:04:16;28.80;40.40
27823;DHT22;29019;47.630;8.262;2022-07-23T22:08:17;28.80;40.40
27823;DHT22;29019;47.630;8.262;2022-07-23T22:12:17;28.90;40.40
27823;DHT22;29019;47.630;8.262;2022-07-23T22:16:18;28.80;40.30
27823;DHT22;29019;47.630;8.262;2022-07-23T22:20:18;28.80;40.30
27823;DHT22;29019;47.630;8.262;2022-07-23T22:24:19;28.90;40.30
27823;DHT22;29019;47.630;8.262;2022-07-23T22:28:19;28.80;40.20
27823;DHT22;29019;47.630;8.262;2022-07-23T22:32:19;28.80;40.20
27823;DHT22;29019;47.630;8.262;2022-07-23T22:36:20;28.80;40.60
27823;DHT22;29019;47.630;8.262;2022-07-23T22:40:20;28.50;42.70
27823;DHT22;29019;47.630;8.262;2022-07-23T22:44:21;28.40;42.40
27823;DHT22;29019;47.630;8.262;2022-07-23T22:48:22;28.20;42.60
27823;DHT22;29019;47.630;8.262;2022-07-23T22:52:22;28.20;42.70
27823;DHT22;29019;47.630;8.262;2022-07-23T22:56:23;28.10;42.70
27823;DHT22;29019;47.630;8.262;2022-07-23T23:00:23;28.00;42.80
27823;DHT22;29019;47.630;8.262;2022-07-23T23:04:24;28.00;42.90
27823;DHT22;29019;47.630;8.262;2022-07-23T23:08:24;28.10;44.80
27823;DHT22;29019;47.630;8.262;2022-07-23T23:12:24;28.10;43.00
27823;DHT22;29019;47.630;8.262;2022-07-23T23:16:25;28.30;42.50
27823;DHT22;29019;47.630;8.262;2022-07-23T23:20:25;28.30;42.10
27823;DHT22;29019;47.630;8.262;2022-07-23T23:24:26;28.40;42.10
27823;DHT22;29019;47.630;8.262;2022-07-23T23:28:26;28.30;42.90
27823;DHT22;29019;47.630;8.262;2022-07-23T23:32:27;28.10;43.00
27823;DHT22;29019;47.630;8.262;2022-07-23T23:36:27;28.00;43.20
27823;DHT22;29019;47.630;8.262;2022-07-23T23:40:28;27.90;43.40
27823;DHT22;29019;47.630;8.262;2022-07-23T23:44:28;27.70;43.60
27823;DHT22;29019;47.630;8.262;2022-07-23T23:48:28;27.60;44.00
27823;DHT22;29019;47.630;8.262;2022-07-23T23:52:29;27.60;44.70
27823;DHT22;29019;47.630;8.262;2022-07-23T23:56:29;27.50;44.20
